createdAt,value
2019-02-06T00:01:53.898Z,-0.70
2019-02-06T00:04:57.543Z,-0.70
2019-02-06T00:08:01.241Z,-0.70
2019-02-06T00:11:04.875Z,-0.70
2019-02-06T00:14:09.076Z,-0.70
2019-02-06T00:17:12.741Z,-0.70
2019-02-06T00:20:16.423Z,-0.60
2019-02-06T00:23:20.370Z,-0.60
2019-02-06T00:26:24.071Z,-0.60
2019-02-06T00:29:27.753Z,-0.70
2019-02-06T00:32:31.787Z,-0.70
2019-02-06T00:35:35.430Z,-0.60
2019-02-06T00:38:39.139Z,-0.70
2019-02-06T00:41:43.251Z,-0.80
2019-02-06T00:48:13.588Z,-0.70
2019-02-06T00:51:17.270Z,-0.60
2019-02-06T00:54:21.410Z,-0.60
2019-02-06T00:57:25.111Z,-0.60
2019-02-06T01:00:28.760Z,-0.50
2019-02-06T01:03:32.921Z,-0.60
2019-02-06T01:06:36.693Z,-0.60
2019-02-06T01:09:40.369Z,-0.60
2019-02-06T01:12:44.269Z,-0.60
2019-02-06T01:15:47.934Z,-0.60
2019-02-06T01:18:51.653Z,-0.50
2019-02-06T01:21:55.334Z,-0.40
2019-02-06T01:24:59.039Z,-0.40
2019-02-06T01:28:02.811Z,-0.30
2019-02-06T01:31:07.869Z,-0.20
2019-02-06T01:34:11.555Z,-0.30
2019-02-06T01:37:15.329Z,-0.30
2019-02-06T01:40:20.231Z,-0.20
2019-02-06T01:43:23.922Z,-0.10
2019-02-06T01:46:27.602Z,0.00
2019-02-06T01:49:31.255Z,0.10
2019-02-06T01:52:34.974Z,0.20
2019-02-06T01:55:38.614Z,0.20
2019-02-06T01:58:42.310Z,0.20
2019-02-06T02:01:46.007Z,0.10
2019-02-06T02:04:49.714Z,0.20
2019-02-06T02:07:53.442Z,0.20
2019-02-06T02:10:57.133Z,0.30
2019-02-06T02:14:00.821Z,0.30
2019-02-06T02:17:04.515Z,0.30
2019-02-06T02:20:14.352Z,0.20
2019-02-06T02:23:18.018Z,0.30
2019-02-06T02:26:21.714Z,0.30
2019-02-06T02:29:25.417Z,0.30
2019-02-06T02:32:29.091Z,0.30
2019-02-06T02:35:32.771Z,0.30
2019-02-06T02:38:36.449Z,0.30
2019-02-06T02:41:40.219Z,0.20
2019-02-06T02:44:43.906Z,0.30
2019-02-06T02:47:47.628Z,0.30
2019-02-06T02:50:51.297Z,0.30
2019-02-06T02:53:54.993Z,0.20
2019-02-06T02:56:58.633Z,0.10
2019-02-06T03:00:02.394Z,0.10
2019-02-06T03:03:07.626Z,0.10
2019-02-06T03:06:11.347Z,0.20
2019-02-06T03:09:15.010Z,0.20
2019-02-06T03:12:18.791Z,0.30
2019-02-06T03:15:22.448Z,0.30
2019-02-06T03:18:26.189Z,0.20
2019-02-06T03:21:29.833Z,0.20
2019-02-06T03:24:33.529Z,0.30
2019-02-06T03:27:37.215Z,0.30
2019-02-06T03:30:40.890Z,0.30
2019-02-06T03:33:44.606Z,0.30
2019-02-06T03:36:48.251Z,0.40
2019-02-06T03:39:51.954Z,0.40
2019-02-06T03:42:55.615Z,0.40
2019-02-06T03:45:59.308Z,0.40
2019-02-06T03:49:03.009Z,0.40
2019-02-06T03:52:06.669Z,0.50
2019-02-06T03:55:11.367Z,0.50
2019-02-06T03:58:15.025Z,0.40
2019-02-06T04:01:18.694Z,0.30
2019-02-06T04:04:22.364Z,0.30
2019-02-06T04:07:26.044Z,0.30
2019-02-06T04:10:29.735Z,0.40
2019-02-06T04:13:33.829Z,0.40
2019-02-06T04:16:37.558Z,0.40
2019-02-06T04:19:41.214Z,0.50
2019-02-06T04:22:45.040Z,0.50
2019-02-06T04:25:48.704Z,0.40
2019-02-06T04:28:52.389Z,0.20
2019-02-06T04:31:56.285Z,0.20
2019-02-06T04:35:00.225Z,0.30
2019-02-06T04:38:03.935Z,0.20
2019-02-06T04:41:07.936Z,0.10
2019-02-06T04:44:11.629Z,0.20
2019-02-06T04:47:15.279Z,0.20
2019-02-06T04:50:19.664Z,0.20
2019-02-06T04:53:23.314Z,0.30
2019-02-06T04:56:26.990Z,0.30
2019-02-06T04:59:31.255Z,0.40
2019-02-06T05:02:34.930Z,0.40
2019-02-06T05:05:38.618Z,0.40
2019-02-06T05:08:43.879Z,0.40
2019-02-06T05:11:47.571Z,0.40
2019-02-06T05:14:51.234Z,0.40
2019-02-06T05:17:56.029Z,0.40
2019-02-06T05:21:00.119Z,0.40
2019-02-06T05:24:03.757Z,0.50
2019-02-06T05:27:07.893Z,0.50
2019-02-06T05:30:11.638Z,0.50
2019-02-06T05:33:15.359Z,0.50
2019-02-06T05:36:19.028Z,0.50
2019-02-06T05:39:22.748Z,0.50
2019-02-06T05:42:26.421Z,0.40
2019-02-06T05:45:30.096Z,0.50
2019-02-06T05:48:33.789Z,0.50
2019-02-06T05:51:37.654Z,0.50
2019-02-06T05:54:41.351Z,0.50
2019-02-06T05:57:45.128Z,0.50
2019-02-06T06:00:49.792Z,0.50
2019-02-06T06:03:53.861Z,0.50
2019-02-06T06:06:57.587Z,0.50
2019-02-06T06:10:01.269Z,0.50
2019-02-06T06:13:05.020Z,0.50
2019-02-06T06:16:08.675Z,0.50
2019-02-06T06:19:12.370Z,0.50
2019-02-06T06:22:16.090Z,0.60
2019-02-06T06:25:20.470Z,0.60
2019-02-06T06:28:24.493Z,0.60
2019-02-06T06:31:28.229Z,0.70
2019-02-06T06:34:31.932Z,0.70
2019-02-06T06:37:35.934Z,0.80
2019-02-06T06:40:39.636Z,0.90
2019-02-06T06:43:43.297Z,1.00
2019-02-06T06:46:47.380Z,1.00
2019-02-06T06:49:51.046Z,0.80
2019-02-06T06:52:54.711Z,0.90
2019-02-06T06:55:58.871Z,0.90
2019-02-06T06:59:02.581Z,1.00
2019-02-06T07:02:06.274Z,1.10
2019-02-06T07:05:12.637Z,1.20
2019-02-06T07:08:16.337Z,1.20
2019-02-06T07:11:20.029Z,1.30
2019-02-06T07:14:23.908Z,1.40
2019-02-06T07:17:27.596Z,1.40
2019-02-06T07:20:31.276Z,1.50
2019-02-06T07:23:35.448Z,1.50
2019-02-06T07:26:39.142Z,1.60
2019-02-06T07:29:42.833Z,1.70
2019-02-06T07:32:47.767Z,1.90
2019-02-06T07:35:51.458Z,1.90
2019-02-06T07:38:55.099Z,2.00
2019-02-06T07:41:59.171Z,2.00
2019-02-06T07:45:02.959Z,2.00
2019-02-06T07:48:06.633Z,1.80
2019-02-06T07:51:10.330Z,1.70
2019-02-06T07:54:14.030Z,1.70
2019-02-06T07:57:17.699Z,1.90
2019-02-06T08:00:21.384Z,1.90
2019-02-06T08:03:25.160Z,1.90
2019-02-06T08:06:28.848Z,1.90
2019-02-06T08:09:32.574Z,2.20
2019-02-06T08:12:36.220Z,2.20
2019-02-06T08:15:39.909Z,2.40
2019-02-06T08:18:43.572Z,2.50
2019-02-06T08:21:49.697Z,2.60
2019-02-06T08:24:52.588Z,2.70
2019-02-06T08:27:56.215Z,2.60
2019-02-06T08:30:59.888Z,2.70
2019-02-06T08:34:03.658Z,2.80
2019-02-06T08:37:07.358Z,2.90
2019-02-06T08:40:13.954Z,2.90
2019-02-06T08:43:17.612Z,2.70
2019-02-06T08:46:21.313Z,2.60
2019-02-06T08:49:24.940Z,2.60
2019-02-06T08:52:28.631Z,2.80
2019-02-06T08:55:33.324Z,2.90
2019-02-06T08:58:37.007Z,2.80
2019-02-06T09:01:40.686Z,2.80
2019-02-06T09:04:55.231Z,2.90
2019-02-06T09:07:49.698Z,3.00
2019-02-06T09:10:53.474Z,3.10
2019-02-06T09:13:57.113Z,3.20
2019-02-06T09:17:00.798Z,3.20
2019-02-06T09:20:07.380Z,3.20
2019-02-06T09:23:11.039Z,3.20
2019-02-06T09:26:14.742Z,3.10
2019-02-06T09:29:18.450Z,3.20
2019-02-06T09:32:22.131Z,3.40
2019-02-06T09:35:25.861Z,3.40
2019-02-06T09:38:29.543Z,3.40
2019-02-06T09:41:33.218Z,3.30
2019-02-06T09:44:36.864Z,3.50
2019-02-06T09:47:40.556Z,3.80
2019-02-06T09:50:44.316Z,4.00
2019-02-06T09:53:48.014Z,4.00
2019-02-06T09:56:51.666Z,4.00
2019-02-06T09:59:55.432Z,4.20
2019-02-06T10:02:59.096Z,4.30
2019-02-06T10:06:02.828Z,4.20
2019-02-06T10:09:07.810Z,4.00
2019-02-06T10:12:12.026Z,4.20
2019-02-06T10:15:25.759Z,4.60
2019-02-06T10:18:29.414Z,4.90
2019-02-06T10:21:33.129Z,4.70
2019-02-06T10:24:36.775Z,4.50
2019-02-06T10:27:40.514Z,4.50
2019-02-06T10:30:46.357Z,4.50
2019-02-06T10:33:50.028Z,4.50
2019-02-06T10:36:53.678Z,4.60
2019-02-06T10:39:58.714Z,4.70
2019-02-06T10:43:02.472Z,4.80
2019-02-06T10:46:06.177Z,4.80
2019-02-06T10:49:09.836Z,4.50
2019-02-06T10:52:13.651Z,5.00
2019-02-06T10:55:17.609Z,5.50
2019-02-06T10:58:21.296Z,5.20
2019-02-06T11:01:25.005Z,5.40
2019-02-06T11:04:28.656Z,5.60
2019-02-06T11:07:32.365Z,5.50
2019-02-06T11:10:36.006Z,5.90
2019-02-06T11:13:39.689Z,5.90
2019-02-06T11:16:43.364Z,5.70
2019-02-06T11:19:47.080Z,5.40
2019-02-06T11:22:50.724Z,5.30
2019-02-06T11:25:54.414Z,5.50
2019-02-06T11:32:24.726Z,5.50
2019-02-06T11:35:28.428Z,5.80
2019-02-06T11:38:32.088Z,6.10
2019-02-06T11:41:35.818Z,6.20
2019-02-06T11:44:39.459Z,6.30
2019-02-06T11:47:43.187Z,6.00
2019-02-06T11:50:46.845Z,6.30
2019-02-06T11:53:50.554Z,6.70
2019-02-06T11:56:54.260Z,6.90
2019-02-06T11:59:57.970Z,7.10
2019-02-06T12:03:01.603Z,7.00
2019-02-06T12:06:05.305Z,6.70
2019-02-06T12:09:11.191Z,6.50
2019-02-06T12:12:14.857Z,6.60
2019-02-06T12:15:21.409Z,6.10
2019-02-06T12:18:25.134Z,5.60
2019-02-06T12:21:28.788Z,5.30
2019-02-06T12:24:32.488Z,5.10
2019-02-06T12:27:36.314Z,4.80
2019-02-06T12:30:41.258Z,4.80
2019-02-06T12:33:44.978Z,4.70
2019-02-06T12:36:48.758Z,4.80
2019-02-06T12:39:52.416Z,4.90
2019-02-06T12:42:56.139Z,5.00
2019-02-06T12:45:59.815Z,4.90
2019-02-06T12:49:03.576Z,4.80
2019-02-06T12:52:07.234Z,4.70
2019-02-06T12:55:14.264Z,4.50
2019-02-06T12:58:17.934Z,4.50
2019-02-06T13:01:21.639Z,4.10
2019-02-06T13:04:25.374Z,4.00
2019-02-06T13:07:29.037Z,3.90
2019-02-06T13:10:34.319Z,3.80
2019-02-06T13:13:38.267Z,3.60
2019-02-06T13:16:42.098Z,3.70
2019-02-06T13:19:45.852Z,3.70
2019-02-06T13:22:49.556Z,3.60
2019-02-06T13:25:53.239Z,3.70
2019-02-06T13:28:57.083Z,4.00
2019-02-06T13:32:00.750Z,4.00
2019-02-06T13:35:07.036Z,4.10
2019-02-06T13:38:10.764Z,4.20
2019-02-06T13:41:14.440Z,4.10
2019-02-06T13:44:18.157Z,4.10
2019-02-06T13:47:21.894Z,4.10
2019-02-06T13:50:25.846Z,4.40
2019-02-06T13:53:29.524Z,4.60
2019-02-06T13:56:33.264Z,4.60
2019-02-06T13:59:36.974Z,4.80
2019-02-06T14:02:40.673Z,4.50
2019-02-06T14:05:46.723Z,4.10
2019-02-06T14:08:49.922Z,4.00
2019-02-06T14:11:53.568Z,3.90
2019-02-06T14:14:57.277Z,3.80
2019-02-06T14:18:00.990Z,3.70
2019-02-06T14:21:04.688Z,3.60
2019-02-06T14:24:11.459Z,3.60
2019-02-06T14:27:33.309Z,3.70
2019-02-06T14:30:43.114Z,3.70
2019-02-06T14:34:04.430Z,3.70
2019-02-06T14:37:17.271Z,3.60
2019-02-06T14:40:30.131Z,3.40
2019-02-06T14:43:39.610Z,3.10
2019-02-06T14:46:49.304Z,3.00
2019-02-06T14:49:56.121Z,2.90
2019-02-06T14:53:11.754Z,2.90
2019-02-06T14:56:24.400Z,3.00
2019-02-06T14:59:34.712Z,2.70
2019-02-06T15:02:56.423Z,2.60
2019-02-06T15:06:05.793Z,2.50
2019-02-06T15:09:29.359Z,2.30
2019-02-06T15:12:51.095Z,2.10
2019-02-06T15:16:16.163Z,2.20
2019-02-06T15:19:22.932Z,1.90
2019-02-06T15:22:47.883Z,1.80
2019-02-06T15:26:00.774Z,1.60
2019-02-06T15:29:31.891Z,1.40
2019-02-06T15:32:38.760Z,1.10
2019-02-06T15:36:00.684Z,1.00
2019-02-06T15:39:30.075Z,0.80
2019-02-06T15:42:48.775Z,0.50
2019-02-06T15:46:30.579Z,0.30
2019-02-06T15:49:43.065Z,-0.10
2019-02-06T15:52:58.425Z,-0.40
2019-02-06T15:56:26.265Z,-0.60
2019-02-06T15:59:33.069Z,-0.50
2019-02-06T16:02:39.874Z,-0.30
2019-02-06T16:05:56.837Z,-0.30
2019-02-06T16:09:11.059Z,-0.50
2019-02-06T16:12:20.787Z,-0.80
2019-02-06T16:15:43.999Z,-0.90
2019-02-06T16:18:53.509Z,-1.00
2019-02-06T16:22:21.297Z,-1.20
2019-02-06T16:25:55.516Z,-1.30
2019-02-06T16:29:11.635Z,-1.40
2019-02-06T16:32:30.204Z,-1.50
2019-02-06T16:35:55.239Z,-1.60
2019-02-06T16:39:05.384Z,-1.70
2019-02-06T16:42:27.672Z,-1.80
2019-02-06T16:45:46.875Z,-1.80
2019-02-06T16:49:10.450Z,-1.90
2019-02-06T16:52:17.374Z,-2.00
2019-02-06T16:55:36.458Z,-2.00
2019-02-06T16:58:59.781Z,-1.80
2019-02-06T17:02:21.430Z,-1.80
2019-02-06T17:05:33.937Z,-2.00
2019-02-06T17:09:15.195Z,-2.10
2019-02-06T17:12:27.774Z,-2.10
2019-02-06T17:15:52.482Z,-2.10
2019-02-06T17:19:18.768Z,-2.10
2019-02-06T17:22:48.127Z,-2.00
2019-02-06T17:26:20.591Z,-2.00
2019-02-06T17:29:54.681Z,-2.10
2019-02-06T17:33:13.351Z,-2.10
2019-02-06T17:36:32.049Z,-2.10
2019-02-06T17:39:50.685Z,-2.20
2019-02-06T17:43:03.095Z,-1.90
2019-02-06T17:46:29.265Z,-1.80
2019-02-06T17:49:53.910Z,-2.00
2019-02-06T17:53:09.937Z,-2.10
2019-02-06T17:56:13.641Z,-2.20
2019-02-06T17:59:17.365Z,-2.20
2019-02-06T18:02:21.149Z,-2.30
2019-02-06T18:05:24.849Z,-2.30
2019-02-06T18:08:28.500Z,-2.40
2019-02-06T18:11:32.167Z,-2.50
2019-02-06T18:14:35.880Z,-2.50
2019-02-06T18:17:39.576Z,-2.50
2019-02-06T18:20:43.244Z,-2.40
2019-02-06T18:23:46.950Z,-2.20
2019-02-06T18:26:50.626Z,-2.00
2019-02-06T18:29:54.428Z,-2.00
2019-02-06T18:33:01.518Z,-1.90
2019-02-06T18:36:05.439Z,-1.80
2019-02-06T18:39:10.724Z,-1.50
2019-02-06T18:42:14.623Z,-1.10
2019-02-06T18:45:19.191Z,-0.80
2019-02-06T18:48:23.742Z,-0.50
2019-02-06T18:51:29.644Z,-0.20
2019-02-06T18:54:33.314Z,-0.10
2019-02-06T18:57:38.251Z,-0.10
2019-02-06T19:00:44.294Z,0.00
2019-02-06T19:03:48.265Z,-0.10
2019-02-06T19:06:52.055Z,-0.10
2019-02-06T19:09:55.806Z,-0.10
2019-02-06T19:12:59.502Z,0.00
2019-02-06T19:16:03.505Z,0.00
2019-02-06T19:19:07.249Z,0.00
2019-02-06T19:22:11.219Z,0.00
2019-02-06T19:25:16.630Z,0.00
2019-02-06T19:28:20.365Z,-0.10
2019-02-06T19:31:25.854Z,-0.10
2019-02-06T19:34:29.594Z,-0.10
2019-02-06T19:37:35.118Z,-0.10
2019-02-06T19:40:38.773Z,-0.20
2019-02-06T19:43:43.075Z,-0.20
2019-02-06T19:46:46.905Z,-0.20
2019-02-06T19:49:50.739Z,-0.20
2019-02-06T19:52:54.841Z,-0.10
2019-02-06T19:55:58.660Z,-0.10
2019-02-06T19:59:04.375Z,-0.20
2019-02-06T20:02:08.242Z,-0.30
2019-02-06T20:05:15.113Z,-0.40
2019-02-06T20:08:19.259Z,-0.40
2019-02-06T20:11:22.992Z,-0.40
2019-02-06T20:14:26.756Z,-0.50
2019-02-06T20:17:30.542Z,-0.50
2019-02-06T20:20:34.457Z,-0.40
2019-02-06T20:23:38.200Z,-0.40
2019-02-06T20:26:41.963Z,-0.50
2019-02-06T20:29:46.124Z,-0.70
2019-02-06T20:32:50.090Z,-0.90
2019-02-06T20:35:53.932Z,-0.90
2019-02-06T20:38:57.895Z,-0.90
2019-02-06T20:42:01.854Z,-1.00
2019-02-06T20:45:08.020Z,-1.10
2019-02-06T20:48:11.859Z,-1.20
2019-02-06T20:51:16.068Z,-1.00
2019-02-06T20:54:19.951Z,-1.00
2019-02-06T20:57:23.700Z,-1.00
2019-02-06T21:00:39.379Z,-0.90
2019-02-06T21:03:43.125Z,-0.90
2019-02-06T21:06:46.879Z,-0.90
2019-02-06T21:09:50.905Z,-0.80
2019-02-06T21:12:54.784Z,-0.80
2019-02-06T21:15:58.524Z,-0.80
2019-02-06T21:19:02.388Z,-0.80
2019-02-06T21:22:06.114Z,-0.80
2019-02-06T21:25:12.358Z,-1.00
2019-02-06T21:28:16.058Z,-1.30
2019-02-06T21:31:19.775Z,-1.60
2019-02-06T21:34:23.617Z,-1.90
2019-02-06T21:37:27.499Z,-2.10
2019-02-06T21:40:35.140Z,-2.30
2019-02-06T21:43:44.297Z,-2.30
2019-02-06T21:46:45.215Z,-2.40
2019-02-06T21:49:48.955Z,-2.60
2019-02-06T21:52:52.642Z,-2.60
2019-02-06T21:55:56.314Z,-2.70
2019-02-06T21:59:00.028Z,-2.90
2019-02-06T22:02:03.705Z,-2.90
2019-02-06T22:05:07.938Z,-3.00
2019-02-06T22:08:11.658Z,-3.10
2019-02-06T22:11:15.312Z,-3.00
2019-02-06T22:14:19.036Z,-3.10
2019-02-06T22:17:22.753Z,-3.10
2019-02-06T22:20:26.477Z,-3.10
2019-02-06T22:23:30.135Z,-3.10
2019-02-06T22:26:33.826Z,-3.00
2019-02-06T22:29:37.506Z,-2.90
2019-02-06T22:32:41.194Z,-2.90
2019-02-06T22:35:44.884Z,-3.00
2019-02-06T22:38:48.535Z,-3.20
2019-02-06T22:41:52.228Z,-3.20
2019-02-06T22:44:55.890Z,-3.40
2019-02-06T22:47:59.580Z,-3.60
2019-02-06T22:51:03.331Z,-3.80
2019-02-06T22:54:06.988Z,-3.80
2019-02-06T22:57:10.696Z,-3.80
2019-02-06T23:00:39.816Z,-3.90
2019-02-06T23:03:43.507Z,-3.80
2019-02-06T23:06:47.235Z,-3.80
2019-02-06T23:09:50.927Z,-3.90
2019-02-06T23:12:54.616Z,-4.00
2019-02-06T23:15:58.335Z,-3.90
2019-02-06T23:19:02.094Z,-3.90
2019-02-06T23:22:05.715Z,-4.10
2019-02-06T23:25:09.452Z,-4.30
2019-02-06T23:28:13.115Z,-4.30
2019-02-06T23:31:16.800Z,-4.40
2019-02-06T23:34:20.504Z,-4.40
2019-02-06T23:37:24.169Z,-4.40
2019-02-06T23:40:27.857Z,-4.30
2019-02-06T23:43:31.565Z,-4.30
2019-02-06T23:46:35.250Z,-4.30
2019-02-06T23:49:38.950Z,-4.30
2019-02-06T23:52:42.682Z,-4.40
2019-02-06T23:55:46.299Z,-4.30
2019-02-06T23:58:50.015Z,-4.30
